Hazel Dell, Illinois
Current Conditions -  °F | °C
As of 10:53 AM on Friday 28 Nov 2014 (Local Time) from KMTO Reporting Station
Clear Clear  
Wind Chill: 22°   Ceiling: Unl
Heat Index: 32°   Visibility: 10mi
Dew Point: 25°   Wind: 15mph
Humidity: 75%   Direction: 170°S
Pressure: 30.21"   Gusts: 23mph
Location:  39.2272°N, 88.1132°W
Report Text: KMTO 281653Z AUTO 17013G20KT 10SM CLR 00/M04 A3021 RMK AO2 SLP240 T00001039
Loading
Personal Weather Stations






























Interactive Weather Map New forecast layout! Learn more

10-Day Weather Forecast

Advertisements
Track Severe Weather on mobile